createdAt,value
2022-10-09T00:00:00.862Z,99.90
2022-10-09T00:00:23.611Z,99.90
2022-10-09T00:00:46.560Z,99.90
2022-10-09T00:01:11.042Z,99.90
2022-10-09T00:01:35.287Z,99.90
2022-10-09T00:01:58.113Z,99.90
2022-10-09T00:02:20.960Z,99.90
2022-10-09T00:02:43.846Z,99.90
2022-10-09T00:03:06.791Z,99.90
2022-10-09T00:03:29.543Z,99.90
2022-10-09T00:03:53.371Z,99.90
2022-10-09T00:04:16.127Z,99.90
2022-10-09T00:04:39.417Z,99.90
2022-10-09T00:05:02.105Z,99.90
2022-10-09T00:05:27.005Z,99.90
2022-10-09T00:05:49.957Z,99.90
2022-10-09T00:06:14.400Z,99.90
2022-10-09T00:06:37.229Z,99.90
2022-10-09T00:07:00.022Z,99.90
2022-10-09T00:07:22.740Z,99.90
2022-10-09T00:07:45.446Z,99.90
2022-10-09T00:08:08.409Z,99.90
2022-10-09T00:08:33.619Z,99.90
2022-10-09T00:08:59.365Z,99.90
2022-10-09T00:09:22.305Z,99.90
2022-10-09T00:09:45.115Z,1.00
2022-10-09T00:10:08.466Z,1.00
2022-10-09T00:10:34.010Z,1.00
2022-10-09T00:10:56.801Z,1.00
2022-10-09T00:11:23.760Z,1.00
2022-10-09T00:11:46.595Z,1.00
2022-10-09T00:12:10.522Z,1.00
2022-10-09T00:12:33.317Z,1.00
2022-10-09T00:12:56.072Z,1.00
2022-10-09T00:13:18.819Z,1.00
2022-10-09T00:13:41.542Z,1.00
2022-10-09T00:14:04.341Z,1.00
2022-10-09T00:14:27.077Z,1.00
2022-10-09T00:14:49.982Z,1.00
2022-10-09T00:15:12.802Z,1.00
2022-10-09T00:15:38.733Z,1.00
2022-10-09T00:16:03.333Z,1.00
2022-10-09T00:16:26.400Z,1.00
2022-10-09T00:16:50.658Z,1.00
2022-10-09T00:17:13.414Z,1.00
2022-10-09T00:17:38.352Z,1.00
2022-10-09T00:18:01.404Z,1.00
2022-10-09T00:18:24.172Z,1.00
2022-10-09T00:18:46.811Z,1.00
2022-10-09T00:19:09.577Z,1.00
2022-10-09T00:19:32.376Z,1.00
2022-10-09T00:19:55.051Z,1.00
2022-10-09T00:20:17.876Z,1.00
2022-10-09T00:20:41.251Z,1.00
2022-10-09T00:21:04.254Z,1.00
2022-10-09T00:21:27.816Z,1.00
2022-10-09T00:21:50.597Z,1.00
2022-10-09T00:22:16.051Z,1.00
2022-10-09T00:22:38.787Z,1.00
2022-10-09T00:23:01.673Z,1.00
2022-10-09T00:23:24.378Z,1.00
2022-10-09T00:23:47.153Z,1.00
2022-10-09T00:24:10.026Z,1.00
2022-10-09T00:24:32.841Z,1.00
2022-10-09T00:24:55.592Z,1.00
2022-10-09T00:25:18.377Z,1.00
2022-10-09T00:25:41.075Z,1.00
2022-10-09T00:26:03.948Z,1.00
2022-10-09T00:26:26.892Z,1.00
2022-10-09T00:26:49.677Z,1.00
2022-10-09T00:27:12.429Z,1.00
2022-10-09T00:27:35.111Z,1.00
2022-10-09T00:27:57.917Z,1.00
2022-10-09T00:28:20.855Z,1.00
2022-10-09T00:28:44.761Z,1.00
2022-10-09T00:29:07.539Z,1.00
2022-10-09T00:29:30.518Z,1.00
2022-10-09T00:29:55.737Z,1.00
2022-10-09T00:30:18.431Z,1.00
2022-10-09T00:30:41.312Z,1.00
2022-10-09T00:31:05.275Z,1.20
2022-10-09T00:31:28.292Z,1.00
2022-10-09T00:31:52.492Z,1.10
2022-10-09T00:32:15.182Z,2.50
2022-10-09T00:32:38.002Z,2.50
2022-10-09T00:33:00.687Z,3.10
2022-10-09T00:33:25.901Z,3.60
2022-10-09T00:33:48.676Z,3.80
2022-10-09T00:34:11.988Z,6.20
2022-10-09T00:34:34.793Z,6.20
2022-10-09T00:34:59.974Z,6.20
2022-10-09T00:35:23.092Z,8.50
2022-10-09T00:35:45.825Z,9.60
2022-10-09T00:36:12.632Z,6.80
2022-10-09T00:36:35.372Z,8.00
2022-10-09T00:36:58.088Z,8.90
2022-10-09T00:37:20.869Z,9.00
2022-10-09T00:37:43.587Z,9.90
2022-10-09T00:38:06.457Z,11.80
2022-10-09T00:38:29.201Z,12.00
2022-10-09T00:38:51.994Z,12.50
2022-10-09T00:39:17.894Z,13.70
2022-10-09T00:39:40.549Z,14.10
2022-10-09T00:40:03.500Z,15.10
2022-10-09T00:40:26.253Z,16.40
2022-10-09T00:40:48.889Z,16.60
2022-10-09T00:41:15.048Z,16.90
2022-10-09T00:41:37.893Z,17.60
2022-10-09T00:42:00.809Z,16.90
2022-10-09T00:42:26.112Z,17.00
2022-10-09T00:42:49.160Z,17.50
2022-10-09T00:43:15.253Z,17.60
2022-10-09T00:43:43.441Z,17.40
2022-10-09T00:44:39.298Z,18.30
2022-10-09T00:45:02.456Z,18.80
2022-10-09T00:45:25.452Z,19.60
2022-10-09T00:45:50.210Z,20.90
2022-10-09T00:46:33.814Z,21.40
2022-10-09T00:46:58.398Z,22.10
2022-10-09T00:47:23.858Z,22.70
2022-10-09T00:47:48.358Z,22.30
2022-10-09T00:48:11.129Z,22.00
2022-10-09T00:48:34.102Z,22.10
2022-10-09T00:49:00.586Z,22.50
2022-10-09T00:49:26.172Z,21.50
2022-10-09T00:49:49.028Z,21.00
2022-10-09T00:50:14.399Z,20.90
2022-10-09T00:50:40.040Z,21.50
2022-10-09T00:51:02.775Z,22.20
2022-10-09T00:51:26.552Z,21.90
2022-10-09T00:51:49.288Z,21.40
2022-10-09T00:52:12.222Z,21.70
2022-10-09T00:52:34.968Z,21.70
2022-10-09T00:52:58.951Z,21.80
2022-10-09T00:53:22.893Z,22.30
2022-10-09T00:53:45.601Z,22.80
2022-10-09T00:54:09.988Z,23.40
2022-10-09T00:54:34.095Z,23.80
2022-10-09T00:54:56.879Z,24.40
2022-10-09T00:55:19.742Z,24.50
2022-10-09T00:55:43.215Z,24.70
2022-10-09T00:56:06.475Z,24.80
2022-10-09T00:56:29.246Z,24.80
2022-10-09T00:56:52.004Z,24.80
2022-10-09T00:57:14.725Z,24.90
2022-10-09T00:57:37.443Z,25.20
2022-10-09T00:58:00.259Z,25.90
2022-10-09T00:58:23.053Z,26.00
2022-10-09T00:58:46.850Z,26.10
2022-10-09T00:59:09.604Z,26.60
2022-10-09T00:59:32.331Z,27.20
2022-10-09T00:59:56.035Z,27.70
2022-10-09T01:00:18.885Z,27.60
2022-10-09T01:00:42.102Z,27.60
2022-10-09T01:01:04.959Z,27.60
2022-10-09T01:01:27.880Z,27.80
2022-10-09T01:01:50.804Z,27.90
2022-10-09T01:02:15.228Z,28.90
2022-10-09T01:02:38.193Z,29.10
2022-10-09T01:03:03.663Z,29.80
2022-10-09T01:03:26.399Z,29.70
2022-10-09T01:03:49.119Z,29.90
2022-10-09T01:04:11.911Z,31.00
2022-10-09T01:04:35.183Z,31.10
2022-10-09T01:04:58.003Z,30.70
2022-10-09T01:05:21.430Z,31.00
2022-10-09T01:05:49.423Z,30.40
2022-10-09T01:06:16.649Z,30.40
2022-10-09T01:06:53.756Z,30.10
2022-10-09T01:07:28.327Z,30.30
2022-10-09T01:07:53.658Z,31.00
2022-10-09T01:08:19.258Z,30.90
2022-10-09T01:08:46.401Z,31.50
2022-10-09T01:09:11.695Z,31.30
2022-10-09T01:09:39.963Z,32.20
2022-10-09T01:10:08.395Z,32.60
2022-10-09T01:10:33.932Z,33.50
2022-10-09T01:10:59.848Z,33.30
2022-10-09T01:11:28.338Z,33.30
2022-10-09T01:11:54.967Z,33.80
2022-10-09T01:12:21.032Z,33.40
2022-10-09T01:12:47.094Z,33.30
2022-10-09T01:13:13.136Z,32.40
2022-10-09T01:13:39.215Z,31.60
2022-10-09T01:14:04.325Z,31.50
2022-10-09T01:14:28.830Z,31.90
2022-10-09T01:14:57.807Z,32.20
2022-10-09T01:15:22.640Z,32.40
2022-10-09T01:15:48.057Z,32.40
2022-10-09T01:16:14.448Z,32.40
2022-10-09T01:16:38.396Z,31.60
2022-10-09T01:17:04.365Z,31.30
2022-10-09T01:17:32.165Z,32.00
2022-10-09T01:17:57.922Z,33.00
2022-10-09T01:18:24.581Z,32.10
2022-10-09T01:18:49.254Z,30.90
2022-10-09T01:19:16.593Z,30.90
2022-10-09T01:19:51.212Z,31.50
2022-10-09T01:20:30.861Z,31.80
2022-10-09T01:20:55.334Z,31.50
2022-10-09T01:21:19.983Z,32.30
2022-10-09T01:21:46.336Z,32.30
2022-10-09T01:22:14.924Z,32.00
2022-10-09T01:22:45.179Z,32.90
2022-10-09T01:23:42.253Z,32.70
2022-10-09T01:24:12.141Z,32.50
2022-10-09T01:24:38.588Z,32.70
2022-10-09T01:25:05.308Z,33.60
2022-10-09T01:25:32.882Z,34.20
2022-10-09T01:26:01.995Z,34.00
2022-10-09T01:26:32.647Z,34.30
2022-10-09T01:27:05.878Z,33.80
2022-10-09T01:27:28.616Z,33.30
2022-10-09T01:27:51.278Z,33.20
2022-10-09T01:28:14.183Z,33.70
2022-10-09T01:28:37.338Z,33.40
2022-10-09T01:29:02.758Z,33.10
2022-10-09T01:29:27.042Z,32.70
2022-10-09T01:29:52.248Z,32.50
2022-10-09T01:30:14.947Z,32.60
2022-10-09T01:30:37.684Z,32.50
2022-10-09T01:31:01.700Z,32.80
2022-10-09T01:31:26.222Z,32.60
2022-10-09T01:31:49.898Z,33.00
2022-10-09T01:32:15.047Z,33.30
2022-10-09T01:32:38.807Z,33.90
2022-10-09T01:33:01.602Z,33.90
2022-10-09T01:33:24.314Z,34.30
2022-10-09T01:33:47.073Z,34.40
2022-10-09T01:34:09.753Z,34.50
2022-10-09T01:34:32.545Z,34.50
2022-10-09T01:34:55.362Z,34.80
2022-10-09T01:35:18.294Z,35.20
2022-10-09T01:35:41.118Z,35.30
2022-10-09T01:36:06.494Z,35.60
2022-10-09T01:36:29.837Z,34.90
2022-10-09T01:36:52.539Z,35.20
2022-10-09T01:37:15.636Z,35.60
2022-10-09T01:37:38.714Z,35.90
2022-10-09T01:38:01.413Z,35.90
2022-10-09T01:38:27.229Z,35.70
2022-10-09T01:38:50.028Z,35.30
2022-10-09T01:39:14.394Z,34.90
2022-10-09T01:39:37.083Z,34.60
2022-10-09T01:39:59.766Z,34.70
2022-10-09T01:40:22.518Z,34.80
2022-10-09T01:40:45.373Z,35.10
2022-10-09T01:41:08.491Z,35.40
2022-10-09T01:41:33.558Z,35.40
2022-10-09T01:41:56.329Z,35.50
2022-10-09T01:42:23.650Z,35.60
2022-10-09T01:42:49.464Z,35.90
2022-10-09T01:43:12.712Z,35.70
2022-10-09T01:43:38.112Z,35.60
2022-10-09T01:44:00.888Z,36.40
2022-10-09T01:44:26.951Z,36.20
2022-10-09T01:44:49.722Z,35.80
2022-10-09T01:45:13.284Z,35.00
2022-10-09T01:45:39.420Z,34.60
2022-10-09T01:46:23.184Z,35.00
2022-10-09T01:46:45.913Z,35.10
2022-10-09T01:47:11.372Z,35.50
2022-10-09T01:47:34.143Z,35.30
2022-10-09T01:47:56.819Z,35.10
2022-10-09T01:48:22.715Z,36.10
2022-10-09T01:48:45.507Z,36.60
2022-10-09T01:49:12.656Z,36.10
2022-10-09T01:49:42.275Z,35.30
2022-10-09T01:50:09.332Z,35.40
2022-10-09T01:50:33.607Z,35.70
2022-10-09T01:50:57.995Z,36.30
2022-10-09T01:51:20.842Z,36.10
2022-10-09T01:51:46.673Z,35.90
2022-10-09T01:52:16.893Z,35.40
2022-10-09T01:52:43.862Z,35.70
2022-10-09T01:53:08.172Z,35.70
2022-10-09T01:53:31.073Z,34.80
2022-10-09T01:53:53.964Z,34.20
2022-10-09T01:54:16.752Z,35.20
2022-10-09T01:54:49.043Z,35.30
2022-10-09T01:55:18.998Z,34.00
2022-10-09T01:55:44.748Z,33.40
2022-10-09T01:56:09.372Z,33.90
2022-10-09T01:56:33.432Z,34.00
2022-10-09T01:56:56.236Z,34.00
2022-10-09T01:57:22.878Z,33.60
2022-10-09T01:57:48.583Z,34.20
2022-10-09T01:58:14.887Z,34.90
2022-10-09T01:58:39.797Z,34.60
2022-10-09T01:59:04.321Z,33.90
2022-10-09T01:59:26.977Z,33.80
2022-10-09T01:59:49.674Z,33.90
2022-10-09T02:00:12.828Z,33.70
2022-10-09T02:00:37.937Z,34.00
2022-10-09T02:01:04.909Z,34.60
2022-10-09T02:01:29.100Z,35.00
2022-10-09T02:01:55.258Z,35.30
2022-10-09T02:02:18.345Z,34.50
2022-10-09T02:02:42.502Z,34.90
2022-10-09T02:03:08.172Z,34.70
2022-10-09T02:03:31.049Z,34.00
2022-10-09T02:03:53.808Z,34.20
2022-10-09T02:04:16.650Z,34.20
2022-10-09T02:04:40.675Z,34.10
2022-10-09T02:05:03.435Z,34.30
2022-10-09T02:05:27.035Z,34.50
2022-10-09T02:05:50.175Z,34.70
2022-10-09T02:06:13.360Z,34.80
2022-10-09T02:06:36.215Z,34.60
2022-10-09T02:06:59.059Z,34.20
2022-10-09T02:07:21.840Z,34.40
2022-10-09T02:07:44.632Z,34.50
2022-10-09T02:08:07.445Z,34.40
2022-10-09T02:08:30.201Z,34.40
2022-10-09T02:08:53.705Z,33.90
2022-10-09T02:09:16.653Z,33.20
2022-10-09T02:09:39.523Z,32.90
2022-10-09T02:10:05.138Z,33.10
2022-10-09T02:10:29.915Z,33.50
2022-10-09T02:10:54.403Z,33.40
2022-10-09T02:11:17.162Z,33.40
2022-10-09T02:11:42.875Z,33.20
2022-10-09T02:12:07.679Z,32.70
2022-10-09T02:12:31.999Z,33.60
2022-10-09T02:12:57.532Z,33.20
2022-10-09T02:13:20.422Z,33.00
2022-10-09T02:13:43.644Z,32.30
2022-10-09T02:14:06.901Z,31.50
2022-10-09T02:14:29.623Z,32.20
2022-10-09T02:14:52.496Z,32.00
2022-10-09T02:15:16.049Z,31.30
2022-10-09T02:15:41.811Z,30.90
2022-10-09T02:16:06.933Z,30.40
2022-10-09T02:16:37.198Z,30.00
2022-10-09T02:17:02.682Z,29.90
2022-10-09T02:17:27.719Z,29.90
2022-10-09T02:17:50.558Z,29.70
2022-10-09T02:18:14.812Z,30.20
2022-10-09T02:18:40.019Z,30.60
2022-10-09T02:19:04.717Z,29.50
2022-10-09T02:19:30.463Z,29.60
2022-10-09T02:19:55.697Z,29.40
2022-10-09T02:20:21.732Z,29.40
2022-10-09T02:20:47.453Z,29.60
2022-10-09T02:21:13.273Z,30.00
2022-10-09T02:21:43.008Z,30.20
2022-10-09T02:22:14.878Z,30.60
2022-10-09T02:22:37.673Z,31.10
2022-10-09T02:23:00.864Z,31.50
2022-10-09T02:23:23.686Z,31.40
2022-10-09T02:23:46.559Z,31.70
2022-10-09T02:24:10.484Z,31.40
2022-10-09T02:24:33.169Z,31.50
2022-10-09T02:24:55.854Z,32.50
2022-10-09T02:25:19.625Z,32.50
2022-10-09T02:25:42.374Z,31.50
2022-10-09T02:26:05.134Z,32.00
2022-10-09T02:26:27.940Z,32.90
2022-10-09T02:26:50.734Z,31.80
2022-10-09T02:27:13.674Z,31.50
2022-10-09T02:27:36.484Z,31.70
2022-10-09T02:28:03.244Z,31.20
2022-10-09T02:28:26.392Z,31.40
2022-10-09T02:28:49.304Z,31.50
2022-10-09T02:29:13.278Z,31.80
2022-10-09T02:29:36.047Z,31.80
2022-10-09T02:29:58.915Z,32.00
2022-10-09T02:30:21.628Z,32.00
2022-10-09T02:30:48.178Z,32.10
2022-10-09T02:31:13.714Z,32.60
2022-10-09T02:31:38.025Z,32.80
2022-10-09T02:32:01.028Z,33.80
2022-10-09T02:32:24.236Z,34.10
2022-10-09T02:32:52.458Z,32.90
2022-10-09T02:33:15.292Z,32.10
2022-10-09T02:33:38.013Z,32.60
2022-10-09T02:34:01.962Z,32.70
2022-10-09T02:34:25.954Z,31.40
2022-10-09T02:34:48.818Z,32.30
2022-10-09T02:35:11.473Z,31.90
2022-10-09T02:35:34.252Z,31.30
2022-10-09T02:35:56.987Z,30.80
2022-10-09T02:36:19.699Z,30.20
2022-10-09T02:36:42.443Z,29.80
2022-10-09T02:37:05.585Z,28.90
2022-10-09T02:37:28.344Z,29.00
2022-10-09T02:37:51.226Z,29.00
2022-10-09T02:38:13.948Z,27.70
2022-10-09T02:38:36.740Z,28.10
2022-10-09T02:38:59.644Z,28.80
2022-10-09T02:39:22.489Z,28.60
2022-10-09T02:39:48.309Z,27.90
2022-10-09T02:40:11.784Z,28.50
2022-10-09T02:40:34.520Z,28.60
2022-10-09T02:41:00.307Z,29.10
2022-10-09T02:41:23.269Z,29.10
2022-10-09T02:41:45.999Z,28.50
2022-10-09T02:42:08.765Z,28.30
2022-10-09T02:42:31.469Z,29.00
2022-10-09T02:42:54.244Z,29.60
2022-10-09T02:43:18.379Z,29.30
2022-10-09T02:43:41.119Z,29.10
2022-10-09T02:44:04.029Z,29.70
2022-10-09T02:44:27.032Z,30.30
2022-10-09T02:44:49.784Z,30.10
2022-10-09T02:45:12.475Z,30.80
2022-10-09T02:45:35.196Z,30.80
2022-10-09T02:45:57.925Z,31.10
2022-10-09T02:46:21.322Z,31.60
2022-10-09T02:46:44.117Z,32.00
2022-10-09T02:47:06.969Z,32.90
2022-10-09T02:47:29.685Z,33.30
2022-10-09T02:47:52.391Z,33.10
2022-10-09T02:48:15.151Z,33.90
2022-10-09T02:48:37.914Z,33.70
2022-10-09T02:49:01.719Z,33.40
2022-10-09T02:49:24.504Z,33.00
2022-10-09T02:49:47.215Z,32.40
2022-10-09T02:50:10.572Z,32.40
2022-10-09T02:50:33.232Z,32.20
2022-10-09T02:50:56.010Z,32.20
2022-10-09T02:51:19.204Z,32.40
2022-10-09T02:51:41.852Z,32.90
2022-10-09T02:52:04.634Z,33.40
2022-10-09T02:52:27.379Z,33.80
2022-10-09T02:52:50.242Z,34.10
2022-10-09T02:53:13.548Z,34.30
2022-10-09T02:53:37.284Z,34.20
2022-10-09T02:53:59.993Z,34.70
2022-10-09T02:54:22.878Z,34.80
2022-10-09T02:54:45.650Z,34.20
2022-10-09T02:55:11.680Z,34.70
2022-10-09T02:55:36.868Z,34.80
2022-10-09T02:55:59.647Z,34.70
2022-10-09T02:56:22.471Z,34.80
2022-10-09T02:56:45.232Z,34.80
2022-10-09T02:57:08.004Z,35.50
2022-10-09T02:57:30.817Z,35.40
2022-10-09T02:57:53.532Z,35.50
2022-10-09T02:58:17.708Z,34.60
2022-10-09T02:58:40.472Z,34.10
2022-10-09T02:59:05.632Z,34.60
2022-10-09T02:59:29.427Z,35.80
2022-10-09T02:59:52.157Z,34.00
2022-10-09T03:00:15.915Z,34.20
2022-10-09T03:00:39.269Z,34.10
2022-10-09T03:01:01.952Z,32.80
2022-10-09T03:01:24.777Z,32.90
2022-10-09T03:01:47.665Z,32.40
2022-10-09T03:02:10.531Z,32.30
2022-10-09T03:02:33.720Z,31.60
2022-10-09T03:02:56.676Z,32.10
2022-10-09T03:03:19.969Z,31.70
2022-10-09T03:03:42.629Z,31.40
2022-10-09T03:04:05.440Z,31.80
2022-10-09T03:04:28.166Z,32.10
2022-10-09T03:04:50.874Z,32.50
2022-10-09T03:05:13.730Z,32.70
2022-10-09T03:05:36.555Z,32.90
2022-10-09T03:06:02.745Z,32.70
2022-10-09T03:06:26.339Z,32.50
2022-10-09T03:06:49.090Z,32.50
2022-10-09T03:07:11.829Z,32.90
2022-10-09T03:07:34.642Z,32.80
2022-10-09T03:07:57.412Z,32.80
2022-10-09T03:08:20.685Z,32.90
2022-10-09T03:08:44.801Z,33.10
2022-10-09T03:09:07.600Z,33.40
2022-10-09T03:09:33.525Z,33.70
2022-10-09T03:09:58.587Z,34.00
2022-10-09T03:10:21.484Z,34.50
2022-10-09T03:10:44.217Z,35.10
2022-10-09T03:11:06.960Z,34.10
2022-10-09T03:11:29.676Z,33.40
2022-10-09T03:11:52.818Z,33.10
2022-10-09T03:12:21.353Z,33.90
2022-10-09T03:12:44.087Z,34.50
2022-10-09T03:13:06.904Z,34.90
2022-10-09T03:13:32.704Z,35.30
2022-10-09T03:13:55.475Z,35.70
2022-10-09T03:14:18.252Z,35.60
2022-10-09T03:14:41.088Z,35.70
2022-10-09T03:15:03.959Z,36.00
2022-10-09T03:15:26.719Z,36.50
2022-10-09T03:15:49.528Z,36.60
2022-10-09T03:16:13.497Z,36.80
2022-10-09T03:16:36.315Z,37.70
2022-10-09T03:16:59.388Z,38.40
2022-10-09T03:17:22.123Z,38.00
2022-10-09T03:17:44.878Z,38.10
2022-10-09T03:18:09.836Z,38.10
2022-10-09T03:18:32.623Z,38.50
2022-10-09T03:18:55.428Z,37.90
2022-10-09T03:19:18.325Z,37.80
2022-10-09T03:19:41.128Z,37.60
2022-10-09T03:20:04.338Z,37.80
2022-10-09T03:20:27.042Z,37.30
2022-10-09T03:20:50.178Z,37.20
2022-10-09T03:21:14.033Z,37.30
2022-10-09T03:21:36.792Z,37.40
2022-10-09T03:21:59.491Z,37.70
2022-10-09T03:22:22.262Z,37.60
2022-10-09T03:22:45.115Z,37.40
2022-10-09T03:23:07.823Z,37.30
2022-10-09T03:23:31.039Z,37.70
2022-10-09T03:23:53.805Z,37.60
2022-10-09T03:24:16.492Z,37.80
2022-10-09T03:24:39.205Z,38.00
2022-10-09T03:25:01.978Z,38.20
2022-10-09T03:25:25.323Z,38.20
2022-10-09T03:25:59.337Z,38.50
2022-10-09T03:26:22.676Z,38.80
2022-10-09T03:26:45.481Z,39.50
2022-10-09T03:27:10.622Z,39.60
2022-10-09T03:27:33.376Z,40.00
2022-10-09T03:27:56.059Z,39.60
2022-10-09T03:28:18.860Z,39.90
2022-10-09T03:28:48.255Z,39.90
2022-10-09T03:29:11.271Z,39.80
2022-10-09T03:29:34.125Z,39.70
2022-10-09T03:29:58.582Z,39.80
2022-10-09T03:30:21.426Z,40.00
2022-10-09T03:30:44.155Z,40.40
2022-10-09T03:31:07.154Z,40.80
2022-10-09T03:32:12.882Z,41.10
2022-10-09T03:32:35.696Z,41.40
2022-10-09T03:32:58.396Z,41.90
2022-10-09T03:33:21.126Z,41.90
2022-10-09T03:33:43.842Z,42.10
2022-10-09T03:34:06.921Z,42.10
2022-10-09T03:34:29.766Z,42.40
2022-10-09T03:34:54.660Z,42.40
2022-10-09T03:35:17.597Z,42.90
2022-10-09T03:35:41.069Z,42.70
2022-10-09T03:36:04.029Z,42.60
2022-10-09T03:36:26.779Z,42.90
2022-10-09T03:36:49.515Z,42.80
2022-10-09T03:37:12.264Z,42.40
2022-10-09T03:37:35.103Z,42.60
2022-10-09T03:37:57.859Z,42.20
2022-10-09T03:38:20.685Z,41.30
2022-10-09T03:38:43.370Z,41.50
2022-10-09T03:39:06.099Z,40.90
2022-10-09T03:39:28.868Z,40.40
2022-10-09T03:39:51.822Z,40.50
2022-10-09T03:40:14.629Z,40.80
2022-10-09T03:40:37.350Z,40.50
2022-10-09T03:41:00.171Z,41.20
2022-10-09T03:41:22.989Z,40.40
2022-10-09T03:41:45.681Z,39.90
2022-10-09T03:42:08.454Z,39.70
2022-10-09T03:42:31.203Z,40.00
2022-10-09T03:42:53.924Z,40.10
2022-10-09T03:43:19.025Z,40.00
2022-10-09T03:43:41.659Z,39.70
2022-10-09T03:44:06.027Z,39.60
2022-10-09T03:44:28.665Z,39.60
2022-10-09T03:44:51.385Z,39.60
2022-10-09T03:45:14.296Z,39.40
2022-10-09T03:45:39.898Z,38.70
2022-10-09T03:46:06.245Z,38.50
2022-10-09T03:46:29.123Z,38.50
2022-10-09T03:46:52.950Z,38.70
2022-10-09T03:47:15.716Z,38.30
2022-10-09T03:47:39.775Z,38.00
2022-10-09T03:48:05.049Z,37.60
2022-10-09T03:48:27.720Z,37.60
2022-10-09T03:48:50.469Z,37.90
2022-10-09T03:49:13.444Z,38.00
2022-10-09T03:49:36.268Z,37.60
2022-10-09T03:49:58.979Z,38.50
2022-10-09T03:50:21.665Z,37.70
2022-10-09T03:50:44.365Z,37.20
2022-10-09T03:51:07.215Z,37.50
2022-10-09T03:51:30.005Z,37.60
2022-10-09T03:51:55.505Z,36.70
2022-10-09T03:52:18.186Z,36.80
2022-10-09T03:52:41.450Z,37.70
2022-10-09T03:53:04.240Z,37.40
2022-10-09T03:53:27.916Z,38.20
2022-10-09T03:53:50.600Z,37.10
2022-10-09T03:54:13.280Z,36.50
2022-10-09T03:54:36.043Z,36.60
2022-10-09T03:54:58.766Z,37.30
2022-10-09T03:55:21.536Z,36.90
2022-10-09T03:55:44.363Z,36.60
2022-10-09T03:56:07.510Z,36.80
2022-10-09T03:56:30.344Z,37.20
2022-10-09T03:56:53.030Z,37.60
2022-10-09T03:57:15.749Z,37.40
2022-10-09T03:57:39.042Z,37.30
2022-10-09T03:58:01.891Z,37.40
2022-10-09T03:58:24.729Z,37.60
2022-10-09T03:58:47.512Z,38.20
2022-10-09T03:59:11.992Z,38.40
2022-10-09T03:59:34.694Z,38.00
2022-10-09T03:59:57.517Z,36.90
2022-10-09T04:00:20.449Z,37.70
2022-10-09T04:00:45.659Z,37.40
2022-10-09T04:01:08.683Z,36.40
2022-10-09T04:01:31.535Z,36.40
2022-10-09T04:01:54.325Z,36.50
2022-10-09T04:02:17.157Z,36.30
2022-10-09T04:02:39.972Z,35.90
2022-10-09T04:03:02.769Z,35.40
2022-10-09T04:03:27.580Z,36.20
2022-10-09T04:03:50.399Z,36.30
2022-10-09T04:04:13.222Z,36.00
2022-10-09T04:04:36.003Z,35.90
2022-10-09T04:04:58.816Z,35.60
2022-10-09T04:05:21.560Z,35.60
2022-10-09T04:05:44.249Z,35.40
2022-10-09T04:06:07.282Z,36.00
2022-10-09T04:06:30.148Z,36.00
2022-10-09T04:06:52.947Z,35.70
2022-10-09T04:07:15.669Z,34.90
2022-10-09T04:07:38.397Z,34.70
2022-10-09T04:08:01.547Z,34.10
2022-10-09T04:08:24.389Z,35.50
2022-10-09T04:08:47.200Z,35.80
2022-10-09T04:09:10.244Z,35.90
2022-10-09T04:09:33.018Z,35.80
2022-10-09T04:09:55.716Z,35.80
2022-10-09T04:10:18.751Z,36.30
2022-10-09T04:10:41.503Z,36.70
2022-10-09T04:11:04.296Z,35.40
2022-10-09T04:11:26.939Z,35.30
2022-10-09T04:11:49.676Z,36.30
2022-10-09T04:12:12.502Z,36.50
2022-10-09T04:12:35.297Z,36.90
2022-10-09T04:13:00.711Z,37.30
2022-10-09T04:13:23.477Z,37.80
2022-10-09T04:13:46.226Z,39.00
2022-10-09T04:14:09.057Z,37.70
2022-10-09T04:14:33.191Z,36.80
2022-10-09T04:14:55.872Z,36.90
2022-10-09T04:15:18.737Z,36.90
2022-10-09T04:15:44.117Z,37.40
2022-10-09T04:16:09.509Z,37.20
2022-10-09T04:16:32.586Z,37.10
2022-10-09T04:16:56.501Z,37.70
2022-10-09T04:17:21.689Z,36.90
2022-10-09T04:17:44.425Z,36.20
2022-10-09T04:18:07.162Z,36.40
2022-10-09T04:18:29.933Z,37.00
2022-10-09T04:18:52.686Z,37.00
2022-10-09T04:19:15.454Z,36.90
2022-10-09T04:19:38.449Z,37.30
2022-10-09T04:20:01.190Z,37.20
2022-10-09T04:20:24.115Z,37.80
2022-10-09T04:20:49.500Z,38.00
2022-10-09T04:21:13.474Z,38.00
2022-10-09T04:21:36.188Z,38.40
2022-10-09T04:21:58.879Z,38.20
2022-10-09T04:22:21.657Z,38.00
2022-10-09T04:22:44.409Z,38.00
2022-10-09T04:23:07.080Z,38.00
2022-10-09T04:23:30.784Z,38.10
2022-10-09T04:23:53.485Z,37.90
2022-10-09T04:24:16.334Z,39.10
2022-10-09T04:24:39.051Z,39.40
2022-10-09T04:25:01.813Z,38.80
2022-10-09T04:25:24.643Z,39.00
2022-10-09T04:25:49.874Z,39.20
2022-10-09T04:26:13.303Z,39.50
2022-10-09T04:26:36.098Z,39.50
2022-10-09T04:26:58.938Z,39.60
2022-10-09T04:27:21.694Z,40.60
2022-10-09T04:27:44.667Z,41.10
2022-10-09T04:28:07.621Z,40.70
2022-10-09T04:28:31.157Z,40.30
2022-10-09T04:28:53.953Z,39.80
2022-10-09T04:29:16.772Z,39.20
2022-10-09T04:29:43.492Z,38.40
2022-10-09T04:30:07.839Z,37.90
2022-10-09T04:30:30.566Z,37.80
2022-10-09T04:30:53.293Z,37.50
2022-10-09T04:31:15.969Z,37.80
2022-10-09T04:31:38.786Z,38.00
2022-10-09T04:32:01.672Z,38.60
2022-10-09T04:32:24.512Z,38.00
2022-10-09T04:32:48.639Z,37.40
2022-10-09T04:33:13.146Z,37.10
2022-10-09T04:33:36.247Z,36.90
2022-10-09T04:33:58.944Z,36.00
2022-10-09T04:34:21.641Z,35.80
2022-10-09T04:34:44.337Z,35.90
2022-10-09T04:35:07.799Z,35.90
2022-10-09T04:35:30.472Z,36.60
2022-10-09T04:35:54.112Z,36.80
2022-10-09T04:36:16.851Z,36.30
2022-10-09T04:36:39.904Z,36.60
2022-10-09T04:37:02.720Z,36.70
2022-10-09T04:37:25.471Z,36.80
2022-10-09T04:37:48.224Z,37.40
2022-10-09T04:38:11.035Z,37.70
2022-10-09T04:38:33.791Z,37.60
2022-10-09T04:38:56.487Z,37.50
2022-10-09T04:39:21.429Z,37.10
2022-10-09T04:39:44.154Z,37.40
2022-10-09T04:40:07.695Z,37.70
2022-10-09T04:40:30.429Z,38.30
2022-10-09T04:40:56.895Z,39.00
2022-10-09T04:41:19.629Z,38.50
2022-10-09T04:41:42.369Z,38.90
2022-10-09T04:42:06.588Z,38.90
2022-10-09T04:42:29.368Z,38.50
2022-10-09T04:42:52.202Z,38.40
2022-10-09T04:43:15.077Z,38.00
2022-10-09T04:43:37.778Z,37.60
2022-10-09T04:44:00.471Z,37.90
2022-10-09T04:44:23.200Z,37.60
2022-10-09T04:44:48.302Z,38.10
2022-10-09T04:45:11.511Z,37.20
2022-10-09T04:45:34.251Z,36.10
2022-10-09T04:45:57.103Z,35.40
2022-10-09T04:46:19.832Z,35.90
2022-10-09T04:46:42.542Z,34.70
2022-10-09T04:47:08.124Z,34.60
2022-10-09T04:47:34.197Z,35.00
2022-10-09T04:47:56.977Z,34.70
2022-10-09T04:48:22.158Z,34.20
2022-10-09T04:48:45.831Z,34.20
2022-10-09T04:49:12.181Z,32.40
2022-10-09T04:49:34.922Z,33.30
2022-10-09T04:49:57.674Z,34.10
2022-10-09T04:50:20.327Z,34.50
2022-10-09T04:50:43.052Z,35.00
2022-10-09T04:51:06.767Z,35.90
2022-10-09T04:51:29.482Z,35.90
2022-10-09T04:51:52.274Z,35.90
2022-10-09T04:52:14.937Z,37.10
2022-10-09T04:52:37.702Z,37.10
2022-10-09T04:53:00.547Z,37.60
2022-10-09T04:53:23.763Z,37.30
2022-10-09T04:53:46.614Z,37.90
2022-10-09T04:54:09.844Z,38.30
2022-10-09T04:54:32.526Z,39.00
2022-10-09T04:54:55.315Z,39.40
2022-10-09T04:55:18.100Z,39.70
2022-10-09T04:55:40.985Z,40.00
2022-10-09T04:56:04.231Z,40.80
2022-10-09T04:56:26.965Z,41.30
2022-10-09T04:56:49.673Z,41.40
2022-10-09T04:57:12.540Z,42.00
2022-10-09T04:57:35.255Z,41.90
2022-10-09T04:57:58.100Z,41.90
2022-10-09T04:58:20.865Z,42.10
2022-10-09T04:58:43.881Z,42.50
2022-10-09T04:59:06.730Z,43.10
2022-10-09T04:59:29.621Z,42.70
2022-10-09T04:59:53.885Z,42.70
2022-10-09T05:00:16.825Z,42.80
2022-10-09T05:00:41.133Z,42.90
2022-10-09T05:01:06.830Z,43.40
2022-10-09T05:01:34.204Z,44.10
2022-10-09T05:02:00.338Z,43.80
2022-10-09T05:02:25.728Z,43.20
2022-10-09T05:02:48.783Z,43.10
2022-10-09T05:03:11.871Z,43.00
2022-10-09T05:03:35.235Z,43.10
2022-10-09T05:03:57.933Z,43.10
2022-10-09T05:04:20.634Z,43.10
2022-10-09T05:04:44.235Z,43.70
2022-10-09T05:05:08.165Z,43.80
2022-10-09T05:05:32.392Z,43.50
2022-10-09T05:05:55.042Z,43.80
2022-10-09T05:06:18.031Z,44.10
2022-10-09T05:06:40.962Z,44.20
2022-10-09T05:07:03.836Z,44.00
2022-10-09T05:07:26.622Z,43.90
2022-10-09T05:07:49.416Z,43.80
2022-10-09T05:08:12.177Z,44.10
2022-10-09T05:08:35.095Z,44.30
2022-10-09T05:08:57.822Z,44.50
2022-10-09T05:09:20.562Z,45.00